createdAt,value
2022-12-25T00:00:20.386Z,100783.38
2022-12-25T00:03:22.896Z,100778.06
2022-12-25T00:06:24.719Z,100779.56
2022-12-25T00:09:26.374Z,100773.97
2022-12-25T00:12:28.029Z,100765.94
2022-12-25T00:15:29.742Z,100764.94
2022-12-25T00:18:31.428Z,100767.94
2022-12-25T00:21:33.417Z,100781.56
2022-12-25T00:24:35.068Z,100789.87
2022-12-25T00:27:37.962Z,100793.91
2022-12-25T00:30:41.121Z,100789.53
2022-12-25T00:33:44.625Z,100783.72
2022-12-25T00:36:46.376Z,100794.31
2022-12-25T00:39:49.840Z,100794.88
2022-12-25T00:42:51.645Z,100802.94
2022-12-25T00:45:58.851Z,100802.06
2022-12-25T00:49:00.892Z,100798.78
2022-12-25T00:52:02.934Z,100812.38
2022-12-25T00:55:05.745Z,100815.78
2022-12-25T00:58:07.375Z,100820.25
2022-12-25T01:01:11.019Z,100826.87
2022-12-25T01:04:13.155Z,100832.44
2022-12-25T01:07:16.992Z,100840.97
2022-12-25T01:10:24.252Z,100829.38
2022-12-25T01:13:26.726Z,100827.78
2022-12-25T01:16:29.227Z,100840.37
2022-12-25T01:19:30.933Z,100844.56
2022-12-25T01:22:32.657Z,100849.00
2022-12-25T01:25:34.303Z,100850.41
2022-12-25T01:28:36.634Z,100838.47
2022-12-25T01:31:38.405Z,100837.09
2022-12-25T01:34:40.056Z,100823.97
2022-12-25T01:37:41.713Z,100819.75
2022-12-25T01:40:43.357Z,100822.16
2022-12-25T01:44:03.104Z,100829.78
2022-12-25T01:47:06.565Z,100826.09
2022-12-25T01:50:08.765Z,100829.66
2022-12-25T01:53:11.204Z,100823.31
2022-12-25T01:56:12.915Z,100823.59
2022-12-25T01:59:17.569Z,100831.84
2022-12-25T02:02:20.254Z,100848.62
2022-12-25T02:05:27.335Z,100852.59
2022-12-25T02:08:29.173Z,100861.13
2022-12-25T02:11:49.449Z,100866.09
2022-12-25T02:14:59.621Z,100858.44
2022-12-25T02:18:12.079Z,100861.31
2022-12-25T02:21:32.387Z,100854.63
2022-12-25T02:24:37.021Z,100853.97
2022-12-25T02:28:09.542Z,100860.75
2022-12-25T02:31:17.267Z,100870.97
2022-12-25T02:34:52.135Z,100880.97
2022-12-25T02:38:16.300Z,100865.09
2022-12-25T02:41:18.436Z,100868.69
2022-12-25T02:44:43.347Z,100873.47
2022-12-25T02:48:03.862Z,100887.13
2022-12-25T02:51:28.183Z,100877.00
2022-12-25T02:54:55.188Z,100880.84
2022-12-25T02:58:21.065Z,100875.97
2022-12-25T03:01:44.798Z,100871.69
2022-12-25T03:05:06.196Z,100880.31
2022-12-25T03:08:13.933Z,100890.94
2022-12-25T03:11:33.646Z,100893.00
2022-12-25T03:14:53.892Z,100879.59
2022-12-25T03:17:59.345Z,100886.34
2022-12-25T03:21:20.371Z,100880.50
2022-12-25T03:24:41.375Z,100891.41
2022-12-25T03:27:46.769Z,100897.06
2022-12-25T03:31:13.154Z,100898.94
2022-12-25T03:34:56.426Z,100908.81
2022-12-25T03:38:19.499Z,100916.81
2022-12-25T03:42:04.812Z,100916.88
2022-12-25T03:45:38.347Z,100916.13
2022-12-25T03:49:03.086Z,100905.31
2022-12-25T03:52:26.933Z,100903.50
2022-12-25T03:55:47.432Z,100915.63
2022-12-25T03:59:15.456Z,100922.63
2022-12-25T04:02:39.923Z,100935.03
2022-12-25T04:06:00.337Z,100929.75
2022-12-25T04:09:20.380Z,100926.56
2022-12-25T04:12:40.685Z,100912.75
2022-12-25T04:16:00.896Z,100915.31
2022-12-25T04:19:21.079Z,100911.34
2022-12-25T04:22:41.090Z,100913.88
2022-12-25T04:26:01.228Z,100921.13
2022-12-25T04:29:21.822Z,100924.31
2022-12-25T04:32:42.158Z,100920.12
2022-12-25T04:36:07.126Z,100925.84
2022-12-25T04:39:10.196Z,100924.87
2022-12-25T04:42:11.896Z,100919.19
2022-12-25T04:45:13.560Z,100915.28
2022-12-25T04:48:15.413Z,100928.59
2022-12-25T04:51:19.559Z,100939.09
2022-12-25T04:54:21.606Z,100943.56
2022-12-25T04:57:23.348Z,100939.16
2022-12-25T05:00:25.068Z,100945.87
2022-12-25T05:03:27.130Z,100948.75
2022-12-25T05:06:28.864Z,100950.19
2022-12-25T05:09:30.567Z,100954.12
2022-12-25T05:12:32.301Z,100945.50
2022-12-25T05:15:34.049Z,100944.81
2022-12-25T05:18:36.132Z,100958.87
2022-12-25T05:21:37.849Z,100958.22
2022-12-25T05:24:39.520Z,100962.91
2022-12-25T05:27:41.272Z,100960.69
2022-12-25T05:30:43.072Z,100969.53
2022-12-25T05:33:44.765Z,100971.41
2022-12-25T05:36:46.383Z,100974.12
2022-12-25T05:39:48.048Z,100973.00
2022-12-25T05:42:49.713Z,100966.25
2022-12-25T05:45:51.533Z,100970.41
2022-12-25T05:48:53.227Z,100971.63
2022-12-25T05:51:54.955Z,100976.00
2022-12-25T05:54:57.327Z,100972.09
2022-12-25T05:57:59.055Z,100973.44
2022-12-25T06:01:00.817Z,100978.50
2022-12-25T06:04:05.794Z,100985.00
2022-12-25T06:07:12.026Z,100989.37
2022-12-25T06:10:13.980Z,100988.00
2022-12-25T06:13:15.667Z,100999.34
2022-12-25T06:16:17.932Z,101001.97
2022-12-25T06:19:22.882Z,100998.03
2022-12-25T06:22:32.168Z,100997.47
2022-12-25T06:25:34.005Z,100993.91
2022-12-25T06:28:36.230Z,101006.47
2022-12-25T06:31:37.950Z,101008.34
2022-12-25T06:34:39.718Z,101019.97
2022-12-25T06:37:41.414Z,101014.03
2022-12-25T06:40:43.077Z,101008.53
2022-12-25T06:43:51.711Z,101008.19
2022-12-25T06:46:54.530Z,101012.97
2022-12-25T06:49:56.229Z,101015.34
2022-12-25T06:52:57.882Z,101024.19
2022-12-25T06:56:07.562Z,101021.25
2022-12-25T06:59:11.180Z,101013.09
2022-12-25T07:02:33.330Z,101025.00
2022-12-25T07:05:35.192Z,101028.78
2022-12-25T07:08:37.178Z,101028.12
2022-12-25T07:11:38.975Z,101034.63
2022-12-25T07:14:40.908Z,101047.84
2022-12-25T07:17:43.637Z,101048.69
2022-12-25T07:20:45.328Z,101050.72
2022-12-25T07:23:49.604Z,101058.84
2022-12-25T07:26:51.918Z,101054.97
2022-12-25T07:29:53.577Z,101064.16
2022-12-25T07:32:55.490Z,101071.16
2022-12-25T07:35:57.180Z,101078.22
2022-12-25T07:38:58.830Z,101080.59
2022-12-25T07:42:00.542Z,101081.41
2022-12-25T07:45:02.884Z,101083.31
2022-12-25T07:48:06.266Z,101083.41
2022-12-25T07:51:14.925Z,101088.69
2022-12-25T07:54:16.625Z,101086.09
2022-12-25T07:57:18.303Z,101092.53
2022-12-25T08:00:20.305Z,101088.56
2022-12-25T08:03:22.325Z,101097.59
2022-12-25T08:06:30.085Z,101104.81
2022-12-25T08:09:31.813Z,101098.75
2022-12-25T08:12:33.481Z,101104.87
2022-12-25T08:15:35.148Z,101107.13
2022-12-25T08:18:38.186Z,101128.28
2022-12-25T08:21:39.899Z,101126.53
2022-12-25T08:24:41.611Z,101134.12
2022-12-25T08:27:43.277Z,101131.00
2022-12-25T08:30:45.088Z,101138.19
2022-12-25T08:33:48.726Z,101139.94
2022-12-25T08:36:50.376Z,101141.75
2022-12-25T08:39:52.006Z,101149.78
2022-12-25T08:42:57.182Z,101147.38
2022-12-25T08:45:59.000Z,101143.53
2022-12-25T08:49:00.790Z,101151.66
2022-12-25T08:52:02.502Z,101155.72
2022-12-25T08:55:04.429Z,101153.75
2022-12-25T08:58:06.205Z,101146.69
2022-12-25T09:01:08.785Z,101147.16
2022-12-25T09:04:10.502Z,101151.25
2022-12-25T09:07:12.264Z,101153.41
2022-12-25T09:10:13.921Z,101151.28
2022-12-25T09:13:15.583Z,101158.50
2022-12-25T09:16:20.556Z,101151.09
2022-12-25T09:19:22.417Z,101155.19
2022-12-25T09:22:24.155Z,101161.25
2022-12-25T09:25:25.828Z,101157.72
2022-12-25T09:28:27.635Z,101156.72
2022-12-25T09:31:29.350Z,101162.81
2022-12-25T09:34:31.210Z,101165.66
2022-12-25T09:37:33.034Z,101172.41
2022-12-25T09:40:35.264Z,101171.06
2022-12-25T09:43:46.741Z,101165.50
2022-12-25T09:46:56.937Z,101165.97
2022-12-25T09:50:11.405Z,101166.38
2022-12-25T09:53:21.093Z,101173.13
2022-12-25T09:56:26.143Z,101165.56
2022-12-25T09:59:27.932Z,101170.53
2022-12-25T10:02:59.861Z,101170.44
2022-12-25T10:06:18.413Z,101183.88
2022-12-25T10:09:54.763Z,101171.94
2022-12-25T10:12:59.167Z,101175.22
2022-12-25T10:16:08.729Z,101177.62
2022-12-25T10:19:20.727Z,101177.91
2022-12-25T10:22:44.879Z,101180.28
2022-12-25T10:25:47.488Z,101174.69
2022-12-25T10:28:58.483Z,101170.00
2022-12-25T10:32:00.261Z,101173.34
2022-12-25T10:35:01.934Z,101172.03
2022-12-25T10:38:12.509Z,101178.28
2022-12-25T10:41:22.138Z,101175.00
2022-12-25T10:44:27.009Z,101173.84
2022-12-25T10:47:32.948Z,101157.91
2022-12-25T10:50:34.863Z,101154.78
2022-12-25T10:53:43.671Z,101154.72
2022-12-25T10:57:03.376Z,101155.97
2022-12-25T11:00:05.946Z,101152.88
2022-12-25T11:03:22.638Z,101149.97
2022-12-25T11:06:28.206Z,101155.19
2022-12-25T11:09:29.918Z,101157.81
2022-12-25T11:12:36.426Z,101163.63
2022-12-25T11:15:49.399Z,101166.69
2022-12-25T11:18:54.267Z,101161.34
2022-12-25T11:22:01.012Z,101163.63
2022-12-25T11:25:13.703Z,101166.22
2022-12-25T11:28:15.361Z,101158.69
2022-12-25T11:31:20.069Z,101160.59
2022-12-25T11:34:27.568Z,101161.91
2022-12-25T11:37:44.941Z,101155.84
2022-12-25T11:40:50.972Z,101159.09
2022-12-25T11:43:59.390Z,101155.16
2022-12-25T11:47:14.040Z,101146.88
2022-12-25T11:50:20.409Z,101146.97
2022-12-25T11:53:35.016Z,101154.44
2022-12-25T11:56:37.842Z,101155.37
2022-12-25T11:59:58.657Z,101159.19
2022-12-25T12:03:16.394Z,101147.62
2022-12-25T12:06:49.847Z,101148.91
2022-12-25T12:10:03.414Z,101151.06
2022-12-25T12:13:24.353Z,101148.50
2022-12-25T12:16:26.262Z,101149.37
2022-12-25T12:19:30.955Z,101142.56
2022-12-25T12:22:32.605Z,101138.34
2022-12-25T12:25:40.421Z,101139.28
2022-12-25T12:28:47.176Z,101147.12
2022-12-25T12:31:51.027Z,101139.28
2022-12-25T12:34:52.954Z,101135.81
2022-12-25T12:38:02.030Z,101128.56
2022-12-25T12:41:07.408Z,101136.25
2022-12-25T12:44:11.720Z,101138.03
2022-12-25T12:47:40.842Z,101136.16
2022-12-25T12:50:43.246Z,101150.12
2022-12-25T12:53:44.979Z,101151.19
2022-12-25T12:57:21.788Z,101146.63
2022-12-25T13:00:23.587Z,101147.72
2022-12-25T13:03:27.906Z,101151.06
2022-12-25T13:06:56.030Z,101144.91
2022-12-25T13:09:57.573Z,101148.87
2022-12-25T13:13:06.964Z,101154.56
2022-12-25T13:16:45.778Z,101150.69
2022-12-25T13:19:49.722Z,101137.12
2022-12-25T13:22:53.048Z,101136.94
2022-12-25T13:25:57.658Z,101144.81
2022-12-25T13:28:59.501Z,101146.25
2022-12-25T13:32:03.439Z,101141.34
2022-12-25T13:35:11.770Z,101135.91
2022-12-25T13:38:18.208Z,101144.16
2022-12-25T13:42:01.589Z,101139.50
2022-12-25T13:45:15.844Z,101140.03
2022-12-25T13:48:24.144Z,101139.16
2022-12-25T13:51:26.342Z,101143.03
2022-12-25T13:54:27.957Z,101140.19
2022-12-25T13:57:38.616Z,101145.44
2022-12-25T14:00:50.060Z,101147.88
2022-12-25T14:03:51.942Z,101151.38
2022-12-25T14:06:53.650Z,101148.00
2022-12-25T14:10:03.368Z,101157.12
2022-12-25T14:13:10.617Z,101155.22
2022-12-25T14:16:17.015Z,101155.75
2022-12-25T14:19:33.499Z,101161.16
2022-12-25T14:22:36.064Z,101157.38
2022-12-25T14:25:43.766Z,101165.06
2022-12-25T14:29:02.496Z,101162.91
2022-12-25T14:32:07.343Z,101162.81
2022-12-25T14:35:11.993Z,101178.38
2022-12-25T14:38:35.048Z,101177.28
2022-12-25T14:41:41.213Z,101175.03
2022-12-25T14:44:42.995Z,101179.19
2022-12-25T14:47:56.187Z,101187.50
2022-12-25T14:51:00.879Z,101181.50
2022-12-25T14:54:05.552Z,101188.03
2022-12-25T14:57:07.254Z,101193.06
2022-12-25T15:00:09.504Z,101197.00
2022-12-25T15:03:23.940Z,101208.22
2022-12-25T15:06:26.029Z,101209.19
2022-12-25T15:09:30.055Z,101207.31
2022-12-25T15:12:31.861Z,101203.69
2022-12-25T15:15:34.695Z,101213.94
2022-12-25T15:18:44.768Z,101214.41
2022-12-25T15:21:46.633Z,101208.03
2022-12-25T15:24:48.305Z,101211.28
2022-12-25T15:27:49.989Z,101218.50
2022-12-25T15:30:52.087Z,101208.84
2022-12-25T15:33:55.744Z,101218.78
2022-12-25T15:36:57.471Z,101209.13
2022-12-25T15:39:59.563Z,101218.00
2022-12-25T15:43:06.387Z,101218.84
2022-12-25T15:46:12.859Z,101223.34
2022-12-25T15:49:15.724Z,101218.00
2022-12-25T15:52:18.301Z,101219.66
2022-12-25T15:55:20.019Z,101218.78
2022-12-25T15:58:21.703Z,101208.22
2022-12-25T16:01:23.488Z,101206.31
2022-12-25T16:04:26.837Z,101207.00
2022-12-25T16:07:29.380Z,101201.28
2022-12-25T16:10:36.648Z,101204.72
2022-12-25T16:13:40.510Z,101211.09
2022-12-25T16:16:42.279Z,101211.28
2022-12-25T16:19:44.986Z,101209.66
2022-12-25T16:22:46.714Z,101202.41
2022-12-25T16:25:48.560Z,101201.53
2022-12-25T16:28:50.199Z,101208.09
2022-12-25T16:31:51.852Z,101198.50
2022-12-25T16:34:53.509Z,101194.25
2022-12-25T16:37:55.214Z,101197.06
2022-12-25T16:40:59.929Z,101184.28
2022-12-25T16:44:09.364Z,101193.97
2022-12-25T16:47:11.315Z,101196.78
2022-12-25T16:50:13.169Z,101190.69
2022-12-25T16:53:14.865Z,101188.16
2022-12-25T16:56:20.680Z,101195.63
2022-12-25T16:59:22.473Z,101189.72
2022-12-25T17:02:24.621Z,101182.91
2022-12-25T17:05:26.528Z,101181.94
2022-12-25T17:08:28.738Z,101186.06
2022-12-25T17:11:31.145Z,101178.41
2022-12-25T17:14:33.786Z,101180.16
2022-12-25T17:17:35.573Z,101178.53
2022-12-25T17:20:38.234Z,101186.03
2022-12-25T17:23:39.961Z,101174.34
2022-12-25T17:26:43.858Z,101174.91
2022-12-25T17:29:47.709Z,101168.16
2022-12-25T17:32:49.820Z,101168.78
2022-12-25T17:35:51.435Z,101163.56
2022-12-25T17:38:53.108Z,101166.31
2022-12-25T17:41:54.829Z,101165.44
2022-12-25T17:44:56.484Z,101175.53
2022-12-25T17:47:58.140Z,101162.37
2022-12-25T17:51:08.383Z,101172.09
2022-12-25T17:54:10.749Z,101164.09
2022-12-25T17:57:12.407Z,101164.84
2022-12-25T18:00:14.420Z,101172.84
2022-12-25T18:03:16.674Z,101171.56
2022-12-25T18:06:21.874Z,101179.09
2022-12-25T18:09:23.560Z,101170.69
2022-12-25T18:12:25.176Z,101163.38
2022-12-25T18:15:26.878Z,101150.09
2022-12-25T18:18:29.051Z,101149.28
2022-12-25T18:21:31.321Z,101151.69
2022-12-25T18:24:33.075Z,101152.03
2022-12-25T18:27:34.805Z,101140.00
2022-12-25T18:30:44.447Z,101153.38
2022-12-25T18:33:46.799Z,101143.94
2022-12-25T18:36:48.446Z,101140.69
2022-12-25T18:39:50.189Z,101130.16
2022-12-25T18:42:59.371Z,101143.38
2022-12-25T18:46:05.300Z,101141.66
2022-12-25T18:49:07.140Z,101152.34
2022-12-25T18:52:49.405Z,101157.34
2022-12-25T18:55:31.463Z,101163.19
2022-12-25T18:58:33.871Z,101166.22
2022-12-25T19:01:35.778Z,101174.81
2022-12-25T19:04:37.770Z,101177.47
2022-12-25T19:07:39.417Z,101156.84
2022-12-25T19:10:41.801Z,101158.75
2022-12-25T19:13:44.385Z,101157.62
2022-12-25T19:16:46.484Z,101151.16
2022-12-25T19:19:48.255Z,101146.50
2022-12-25T19:22:50.089Z,101141.28
2022-12-25T19:25:51.794Z,101145.28
2022-12-25T19:28:53.510Z,101139.41
2022-12-25T19:31:55.771Z,101133.31
2022-12-25T19:34:57.435Z,101128.94
2022-12-25T19:37:59.339Z,101133.72
2022-12-25T19:41:06.911Z,101143.41
2022-12-25T19:44:08.753Z,101146.63
2022-12-25T19:47:11.319Z,101138.22
2022-12-25T19:50:13.145Z,101141.09
2022-12-25T19:53:17.049Z,101135.88
2022-12-25T19:56:19.818Z,101135.06
2022-12-25T19:59:22.402Z,101139.66
2022-12-25T20:02:24.230Z,101141.53
2022-12-25T20:05:26.027Z,101141.50
2022-12-25T20:08:28.031Z,101148.91
2022-12-25T20:11:31.804Z,101142.97
2022-12-25T20:14:33.465Z,101136.06
2022-12-25T20:17:35.236Z,101133.59
2022-12-25T20:20:37.205Z,101142.34
2022-12-25T20:23:38.973Z,101133.88
2022-12-25T20:26:40.785Z,101128.13
2022-12-25T20:29:42.499Z,101124.75
2022-12-25T20:32:50.207Z,101124.34
2022-12-25T20:35:52.549Z,101133.31
2022-12-25T20:38:54.340Z,101136.19
2022-12-25T20:41:56.185Z,101117.56
2022-12-25T20:44:57.878Z,101100.00
2022-12-25T20:48:00.512Z,101091.94
2022-12-25T20:51:09.569Z,101089.56
2022-12-25T20:54:14.017Z,101086.09
2022-12-25T20:57:15.692Z,101093.59
2022-12-25T21:00:17.490Z,101094.41
2022-12-25T21:03:19.368Z,101100.88
2022-12-25T21:06:21.844Z,101113.09
2022-12-25T21:09:23.503Z,101095.28
2022-12-25T21:12:25.659Z,101098.28
2022-12-25T21:15:27.311Z,101108.34
2022-12-25T21:18:28.990Z,101109.62
2022-12-25T21:21:30.974Z,101097.63
2022-12-25T21:24:32.635Z,101092.34
2022-12-25T21:27:34.346Z,101098.22
2022-12-25T21:30:36.365Z,101101.97
2022-12-25T21:33:53.972Z,101100.41
2022-12-25T21:36:55.708Z,101099.81
2022-12-25T21:39:57.374Z,101099.97
2022-12-25T21:43:00.519Z,101100.47
2022-12-25T21:46:04.282Z,101088.25
2022-12-25T21:49:06.084Z,101075.84
2022-12-25T21:52:07.759Z,101073.66
2022-12-25T21:55:09.430Z,101083.47
2022-12-25T21:58:11.128Z,101081.78
2022-12-25T22:01:16.728Z,101083.41
2022-12-25T22:04:20.772Z,101074.75
2022-12-25T22:07:22.473Z,101081.00
2022-12-25T22:10:24.093Z,101081.50
2022-12-25T22:13:44.127Z,101080.59
2022-12-25T22:17:04.363Z,101075.66
2022-12-25T22:20:08.839Z,101075.41
2022-12-25T22:23:10.476Z,101074.22
2022-12-25T22:26:17.277Z,101088.37
2022-12-25T22:29:22.242Z,101091.22
2022-12-25T22:32:23.928Z,101084.72
2022-12-25T22:35:25.704Z,101089.16
2022-12-25T22:38:27.336Z,101087.16
2022-12-25T22:41:33.496Z,101090.81
2022-12-25T22:44:35.894Z,101103.25
2022-12-25T22:47:37.860Z,101098.50
2022-12-25T22:50:39.546Z,101104.59
2022-12-25T22:53:41.586Z,101106.75
2022-12-25T22:56:45.254Z,101096.12
2022-12-25T22:59:47.001Z,101107.16
2022-12-25T23:02:48.813Z,101108.66
2022-12-25T23:05:55.329Z,101113.38
2022-12-25T23:08:57.459Z,101100.75
2022-12-25T23:11:59.722Z,101090.81
2022-12-25T23:15:01.532Z,101084.53
2022-12-25T23:18:21.989Z,101083.63
2022-12-25T23:21:45.320Z,101087.94
2022-12-25T23:25:05.635Z,101076.28
2022-12-25T23:28:07.330Z,101075.22
2022-12-25T23:31:09.496Z,101071.59
2022-12-25T23:34:11.489Z,101081.16
2022-12-25T23:37:13.208Z,101083.88
2022-12-25T23:40:15.147Z,101083.88
2022-12-25T23:43:16.864Z,101072.69
2022-12-25T23:46:18.729Z,101065.47
2022-12-25T23:49:22.216Z,101066.03
2022-12-25T23:52:23.992Z,101062.06
2022-12-25T23:55:25.690Z,101059.97
2022-12-25T23:58:28.884Z,101056.03
